Time;durP1;ratioP1;P1;durP2;ratioP2;P2;SDS_P1;SDS_P2;PMS_P1;PMS_P2;Temp;Humidity;BMP_temperature;BMP_pressure;BME280_temperature;BME280_humidity;BME280_pressure;Samples;Min_cycle;Max_cycle;Signal;HPM_P1;HPM_P2
2022/02/18 00:01:02;;;;;;;18.02;4.05;;;;;;;12.46;100.00;100940.63;4915266;29;20047;-49
2022/02/18 00:03:28;;;;;;;30.75;3.75;;;;;;;11.98;100.00;100938.03;4908151;29;20101;-49
2022/02/18 00:05:54;;;;;;;21.98;3.33;;;;;;;11.99;100.00;100929.78;4915920;29;20846;-53
2022/02/18 00:08:20;;;;;;;31.87;5.43;;;;;;;12.11;100.00;100924.69;4901550;29;20139;-48
2022/02/18 00:10:46;;;;;;;;;;;;;;;12.25;100.00;100924.72;4907317;29;20052;-48
2022/02/18 00:13:14;;;;;;;25.42;3.40;;;;;;;12.27;100.00;100925.34;4909976;29;19916;-52
2022/02/18 00:15:40;;;;;;;28.90;5.10;;;;;;;12.28;100.00;100927.00;4913868;29;20052;-49
2022/02/18 00:18:05;;;;;;;31.43;4.10;;;;;;;12.00;100.00;100933.31;4903803;29;20040;-50
2022/02/18 00:20:33;;;;;;;28.02;3.30;;;;;;;12.40;100.00;100919.97;4915509;29;20037;-50
2022/02/18 00:23:04;;;;;;;26.15;3.75;;;;;;;12.19;100.00;100919.13;4891909;29;20059;-49
2022/02/18 00:25:31;;;;;;;28.75;4.22;;;;;;;12.30;100.00;100916.88;4907975;29;20037;-49
2022/02/18 00:27:57;;;;;;;24.30;3.83;;;;;;;12.70;100.00;100910.69;4915650;29;20029;-50
2022/02/18 00:30:24;;;;;;;43.72;7.03;;;;;;;12.45;100.00;100914.81;4903854;29;20073;-53
2022/02/18 00:32:49;;;;;;;20.80;4.03;;;;;;;12.24;100.00;100899.75;4896747;29;20073;-49
2022/02/18 00:35:19;;;;;;;30.83;4.53;;;;;;;12.24;100.00;100910.47;4910043;29;20036;-48
2022/02/18 00:37:47;;;;;;;27.05;3.55;;;;;;;12.04;100.00;100900.53;4905970;29;20079;-51
2022/02/18 00:40:13;;;;;;;23.65;4.07;;;;;;;12.39;100.00;100891.50;4915711;29;20134;-49
2022/02/18 00:42:38;;;;;;;25.30;4.53;;;;;;;12.28;100.00;100892.13;4905315;29;20025;-48
2022/02/18 00:45:06;;;;;;;20.75;4.40;;;;;;;11.98;100.00;100884.41;4911104;29;20088;-49
2022/02/18 00:47:31;;;;;;;24.70;3.70;;;;;;;12.02;100.00;100883.03;4895810;29;20076;-50
2022/02/18 00:49:57;;;;;;;42.30;4.97;;;;;;;12.28;100.00;100876.84;4904344;29;20092;-50
2022/02/18 00:52:23;;;;;;;25.13;4.63;;;;;;;12.18;100.00;100877.25;4902283;29;20036;-53
2022/02/18 00:54:48;;;;;;;28.63;3.95;;;;;;;12.02;100.00;100875.81;4893104;29;20427;-50
2022/02/18 00:57:14;;;;;;;27.93;3.73;;;;;;;12.14;100.00;100875.22;4890087;29;20052;-49
2022/02/18 00:59:39;;;;;;;28.27;4.87;;;;;;;12.11;100.00;100868.41;4900324;29;20039;-51
2022/02/18 01:02:06;;;;;;;23.33;4.17;;;;;;;12.53;100.00;100886.16;4896635;29;20113;-51
2022/02/18 01:04:32;;;;;;;23.13;4.85;;;;;;;12.21;100.00;100873.34;4896066;29;20058;-47
2022/02/18 01:06:57;;;;;;;15.18;3.20;;;;;;;12.48;100.00;100876.88;4887762;29;20408;-50
2022/02/18 01:09:23;;;;;;;20.17;3.63;;;;;;;12.38;100.00;100873.75;4896346;29;20044;-51
2022/02/18 01:11:48;;;;;;;25.60;5.47;;;;;;;12.41;100.00;100878.72;4881412;29;20049;-47
2022/02/18 01:14:14;;;;;;;14.55;3.05;;;;;;;12.52;100.00;100879.13;4896585;29;20045;-49
2022/02/18 01:16:40;;;;;;;18.13;3.10;;;;;;;12.14;100.00;100876.03;4886185;29;20043;-48
2022/02/18 01:19:05;;;;;;;22.47;3.97;;;;;;;12.11;100.00;100868.41;4900052;29;20045;-47
2022/02/18 01:21:31;;;;;;;21.20;4.57;;;;;;;12.30;100.00;100871.31;4896090;29;20033;-48
2022/02/18 01:23:57;;;;;;;20.98;3.92;;;;;;;12.31;100.00;100862.22;4895311;29;20270;-49
2022/02/18 01:26:22;;;;;;;26.97;5.80;;;;;;;12.23;100.00;100857.06;4868122;29;20118;-50
2022/02/18 01:28:48;;;;;;;18.63;3.80;;;;;;;12.50;100.00;100846.34;4899075;29;20037;-53
2022/02/18 01:31:13;;;;;;;29.77;4.10;;;;;;;12.22;100.00;100848.19;4890882;29;20053;-50
2022/02/18 01:33:39;;;;;;;19.00;3.57;;;;;;;12.09;100.00;100843.66;4908523;29;20101;-49
2022/02/18 01:36:05;;;;;;;23.05;4.05;;;;;;;12.24;100.00;100842.63;4896372;29;20037;-51
2022/02/18 01:38:31;;;;;;;31.73;3.97;;;;;;;12.31;100.00;100836.22;4895829;29;20033;-47
2022/02/18 01:41:00;;;;;;;17.10;3.65;;;;;;;12.27;100.00;100840.34;4888612;29;20129;-53
2022/02/18 01:43:26;;;;;;;17.75;3.53;;;;;;;12.49;100.00;100840.13;4888540;29;20038;-47
2022/02/18 01:45:51;;;;;;;29.17;4.33;;;;;;;12.81;100.00;100837.63;4894397;29;20052;-48
2022/02/18 01:48:17;;;;;;;20.60;3.60;;;;;;;12.53;100.00;100832.50;4884105;29;20037;-48
2022/02/18 01:50:44;;;;;;;27.67;3.88;;;;;;;12.66;100.00;100826.28;4895126;29;20042;-50
2022/02/18 01:53:12;;;;;;;22.73;3.90;;;;;;;12.85;100.00;100821.91;4893784;29;20069;-49
2022/02/18 01:55:38;;;;;;;25.30;3.70;;;;;;;12.92;100.00;100809.31;4893641;29;20037;-50
2022/02/18 01:58:04;;;;;;;30.35;4.05;;;;;;;12.62;100.00;100809.78;4902247;29;20033;-50
2022/02/18 02:00:32;;;;;;;33.30;4.63;;;;;;;12.58;100.00;100813.91;4921922;29;20033;-50
2022/02/18 02:03:02;;;;;;;22.55;4.90;;;;;;;12.68;100.00;100803.56;4898336;29;20033;-50
2022/02/18 02:05:27;;;;;;;30.30;4.15;;;;;;;12.39;100.00;100794.97;4914048;29;20526;-50
2022/02/18 02:07:53;;;;;;;19.35;3.70;;;;;;;12.28;100.00;100791.06;4907798;29;20041;-51
2022/02/18 02:10:20;;;;;;;;;;;;;;;12.21;100.00;100784.88;4902521;29;20051;-46
2022/02/18 02:12:52;;;;;;;21.33;3.57;;;;;;;12.28;100.00;100776.84;4892113;29;19916;-51
2022/02/18 02:15:38;;;;;;;27.20;5.47;;;;;;;12.31;100.00;100765.69;4893384;29;20037;-51
2022/02/18 02:18:10;;;;;;;33.17;5.05;;;;;;;12.43;100.00;100761.31;4901767;29;20104;-50
2022/02/18 02:20:35;;;;;;;23.63;5.00;;;;;;;12.40;100.00;100748.34;4905881;29;20070;-49
2022/02/18 02:23:00;;;;;;;28.23;4.80;;;;;;;12.57;100.00;100737.16;4913501;29;20037;-47
2022/02/18 02:25:34;;;;;;;22.65;3.85;;;;;;;12.25;100.00;100732.47;4913412;29;20044;-51
2022/02/18 02:28:01;;;;;;;26.67;4.95;;;;;;;12.36;100.00;100724.84;4890301;29;20040;-52
2022/02/18 02:30:30;;;;;;;22.23;4.45;;;;;;;12.47;100.00;100721.50;4905035;29;20125;-50
2022/02/18 02:33:02;;;;;;;25.25;6.70;;;;;;;12.31;100.00;100704.00;4897688;29;20033;-47
2022/02/18 02:35:33;;;;;;;27.23;6.72;;;;;;;12.43;100.00;100713.03;4897599;29;20658;-47
2022/02/18 02:38:00;;;;;;;22.60;5.03;;;;;;;12.29;100.00;100709.56;4889922;29;20052;-49
2022/02/18 02:40:25;;;;;;;23.97;4.67;;;;;;;12.25;100.00;100704.88;4901514;29;20049;-50
2022/02/18 02:42:51;;;;;;;20.08;3.90;;;;;;;12.30;100.00;100699.69;4892029;29;20069;-50
2022/02/18 02:45:17;;;;;;;18.70;4.10;;;;;;;12.30;100.00;100692.44;4920356;29;20048;-51
2022/02/18 02:47:46;;;;;;;19.45;4.45;;;;;;;12.06;100.00;100688.59;4907601;29;20280;-49
2022/02/18 02:50:31;;;;;;;23.00;4.95;;;;;;;12.15;100.00;100679.28;4905656;29;20047;-49
2022/02/18 02:53:01;;;;;;;24.90;4.25;;;;;;;12.42;100.00;100665.81;4897651;29;20033;-50
2022/02/18 02:55:26;;;;;;;20.33;4.73;;;;;;;12.35;100.00;100654.28;4896201;29;20080;-47
2022/02/18 02:57:52;;;;;;;22.43;3.97;;;;;;;12.54;100.00;100649.06;4906605;29;20037;-52
2022/02/18 03:00:18;;;;;;;29.52;5.30;;;;;;;12.19;100.00;100642.19;4901124;29;20040;-50
2022/02/18 03:02:45;;;;;;;33.58;6.28;;;;;;;12.42;100.00;100641.66;4890586;29;20037;-50
2022/02/18 03:05:13;;;;;;;31.65;5.43;;;;;;;12.12;100.00;100650.22;4901380;29;20048;-51
2022/02/18 03:07:39;;;;;;;26.48;4.13;;;;;;;12.24;100.00;100658.44;4894404;29;20070;-48
2022/02/18 03:10:14;;;;;;;28.42;5.03;;;;;;;12.09;100.00;100639.94;4898785;29;20051;-50
2022/02/18 03:12:42;;;;;;;33.63;5.47;;;;;;;12.11;100.00;100640.53;4886974;29;20044;-48
2022/02/18 03:15:11;;;;;;;22.55;4.63;;;;;;;12.02;100.00;100633.78;4890734;29;20041;-50
2022/02/18 03:17:38;;;;;;;33.42;8.40;;;;;;;12.08;100.00;100632.94;4912755;29;20044;-49
2022/02/18 03:20:19;;;;;;;34.70;6.68;;;;;;;11.99;100.00;100640.34;4903966;29;20124;-48
2022/02/18 03:22:45;;;;;;;28.23;7.72;;;;;;;12.19;100.00;100613.50;4899284;29;20069;-50
2022/02/18 03:25:11;;;;;;;37.50;6.90;;;;;;;12.04;100.00;100611.06;4909092;29;20052;-48
2022/02/18 03:27:38;;;;;;;32.00;6.85;;;;;;;12.40;100.00;100605.38;4908124;29;20033;-48
2022/02/18 03:30:07;;;;;;;29.10;4.57;;;;;;;12.41;100.00;100604.34;4900183;29;20045;-48
2022/02/18 03:32:35;;;;;;;36.80;5.40;;;;;;;12.30;100.00;100597.78;4885447;29;20109;-49
2022/02/18 03:35:00;;;;;;;29.27;5.33;;;;;;;12.46;100.00;100591.13;4904345;29;20049;-48
2022/02/18 03:37:37;;;;;;;39.78;6.25;;;;;;;12.52;100.00;100574.16;4885123;29;20048;-48
2022/02/18 03:40:18;;;;;;;31.10;5.15;;;;;;;12.51;100.00;100571.72;4898590;29;20036;-48
2022/02/18 03:42:44;;;;;;;42.17;6.60;;;;;;;12.25;100.00;100573.50;4886521;29;20112;-50
2022/02/18 03:45:09;;;;;;;31.97;5.37;;;;;;;12.30;100.00;100561.06;4909362;29;20040;-51
2022/02/18 03:47:35;;;;;;;47.70;7.85;;;;;;;12.60;100.00;100571.25;4919260;29;20085;-50
2022/02/18 03:50:07;;;;;;;31.05;6.05;;;;;;;12.62;100.00;100562.97;4903978;29;20061;-51
2022/02/18 03:52:33;;;;;;;37.65;6.25;;;;;;;12.68;100.00;100543.31;4899981;29;20044;-48
2022/02/18 03:54:59;;;;;;;36.10;5.68;;;;;;;13.00;100.00;100532.56;4872901;29;20061;-52
2022/02/18 03:57:25;;;;;;;41.57;5.27;;;;;;;12.88;100.00;100524.41;4887246;29;20175;-49
2022/02/18 03:59:51;;;;;;;27.67;5.70;;;;;;;13.01;100.00;100515.41;4876169;29;20034;-50
2022/02/18 04:02:17;;;;;;;47.45;6.18;;;;;;;13.12;100.00;100508.50;4879356;29;20034;-51
2022/02/18 04:04:43;;;;;;;40.00;6.23;;;;;;;12.87;100.00;100501.28;4877982;29;20071;-47
2022/02/18 04:07:20;;;;;;;39.05;6.20;;;;;;;12.70;100.00;100490.28;4872098;29;20048;-49
2022/02/18 04:09:49;;;;;;;34.40;5.63;;;;;;;12.70;100.00;100468.81;4884294;29;20038;-48
2022/02/18 04:12:23;;;;;;;41.80;5.38;;;;;;;12.52;100.00;100452.66;4878241;29;20030;-49
2022/02/18 04:14:57;;;;;;;30.95;5.82;;;;;;;12.58;100.00;100436.50;4868407;29;20045;-47
2022/02/18 04:17:25;;;;;;;42.40;5.63;;;;;;;12.35;100.00;100434.41;4878142;29;20054;-50
2022/02/18 04:20:03;;;;;;;44.00;6.43;;;;;;;12.48;100.00;100422.75;4892719;29;20074;-48
2022/02/18 04:22:39;;;;;;;37.03;6.25;;;;;;;12.15;100.00;100413.09;4877662;29;20055;-51
2022/02/18 04:25:05;;;;;;;46.73;6.63;;;;;;;12.16;100.00;100415.53;4885080;29;20037;-49
2022/02/18 04:27:30;;;;;;;42.13;5.30;;;;;;;12.56;100.00;100402.88;4881956;29;20132;-49
2022/02/18 04:29:56;;;;;;;39.88;8.07;;;;;;;12.27;100.00;100399.81;4868355;29;20045;-48
2022/02/18 04:32:21;;;;;;;51.27;5.87;;;;;;;12.28;100.00;100396.09;4878677;29;20041;-52
2022/02/18 04:34:47;;;;;;;44.00;7.43;;;;;;;12.04;100.00;100396.66;4868178;29;20080;-53
2022/02/18 04:37:12;;;;;;;35.53;7.07;;;;;;;12.52;100.00;100394.44;4873769;29;20052;-49
2022/02/18 04:39:38;;;;;;;30.93;4.77;;;;;;;12.48;100.00;100402.13;4874551;29;20041;-51
2022/02/18 04:42:04;;;;;;;42.50;7.03;;;;;;;12.26;100.00;100387.47;4867224;29;20065;-47
2022/02/18 04:44:29;;;;;;;51.20;5.72;;;;;;;12.20;100.00;100370.38;4878500;29;20038;-49
2022/02/18 04:46:54;;;;;;;33.77;7.13;;;;;;;12.26;100.00;100366.81;4868735;29;20062;-49
2022/02/18 04:49:20;;;;;;;45.57;6.10;;;;;;;12.45;100.00;100377.59;4872861;29;20034;-47
2022/02/18 04:51:49;;;;;;;22.25;4.28;;;;;;;12.62;100.00;100378.69;4875201;29;20093;-48
2022/02/18 04:54:15;;;;;;;47.17;7.63;;;;;;;12.54;100.00;100362.06;4884262;29;20057;-50
2022/02/18 04:56:40;;;;;;;49.47;6.43;;;;;;;12.27;100.00;100347.00;4915369;29;20029;-49
2022/02/18 04:59:06;;;;;;;44.33;6.10;;;;;;;12.20;100.00;100327.47;4907130;29;20037;-47
2022/02/18 05:01:31;;;;;;;47.33;5.75;;;;;;;12.12;100.00;100323.22;4908742;29;20048;-49
2022/02/18 05:03:57;;;;;;;38.27;5.60;;;;;;;12.40;100.00;100311.22;4913498;29;20048;-51
2022/02/18 05:06:22;;;;;;;49.07;7.07;;;;;;;12.21;100.00;100304.16;4903279;29;20044;-51
2022/02/18 05:08:47;;;;;;;31.77;5.73;;;;;;;12.29;100.00;100299.34;4914119;29;20037;-52
2022/02/18 05:11:13;;;;;;;31.25;6.20;;;;;;;12.14;100.00;100293.53;4907704;29;20049;-50
2022/02/18 05:13:39;;;;;;;43.77;7.20;;;;;;;12.22;100.00;100303.94;4907521;29;20053;-50
2022/02/18 05:16:05;;;;;;;32.73;5.37;;;;;;;12.28;100.00;100288.84;4914652;29;20104;-51
2022/02/18 05:18:31;;;;;;;33.45;5.28;;;;;;;12.34;100.00;100285.28;4902977;29;20037;-51
2022/02/18 05:20:57;;;;;;;44.47;7.40;;;;;;;12.16;100.00;100275.34;4912985;29;20060;-46
2022/02/18 05:23:22;;;;;;;45.10;5.83;;;;;;;12.07;100.00;100257.88;4909191;29;20052;-47
2022/02/18 05:25:48;;;;;;;36.58;6.25;;;;;;;12.39;100.00;100250.56;4906733;29;20039;-50
2022/02/18 05:28:15;;;;;;;48.73;6.30;;;;;;;12.23;100.00;100249.28;4919011;29;20041;-50
2022/02/18 05:30:42;;;;;;;38.70;6.60;;;;;;;12.27;100.00;100238.97;4907409;29;20106;-46
2022/02/18 05:33:07;;;;;;;52.20;6.60;;;;;;;12.17;100.00;100224.19;4914485;29;20580;-49
2022/02/18 05:35:33;;;;;;;41.73;5.60;;;;;;;12.30;100.00;100222.44;4913886;29;20036;-50
2022/02/18 05:37:58;;;;;;;42.90;6.30;;;;;;;11.99;100.00;100200.00;4908707;29;20041;-48
2022/02/18 05:40:24;;;;;;;45.85;6.63;;;;;;;12.15;100.00;100201.34;4919263;29;20044;-49
2022/02/18 05:42:49;;;;;;;40.80;6.33;;;;;;;12.01;100.00;100190.72;4908085;29;20041;-48
2022/02/18 05:45:16;;;;;;;37.72;5.57;;;;;;;12.30;100.00;100200.97;4913942;29;20348;-49
2022/02/18 05:47:45;;;;;;;24.48;5.53;;;;;;;12.15;100.00;100198.66;4915272;29;20100;-48
2022/02/18 05:50:12;;;;;;;42.70;6.40;;;;;;;12.51;100.00;100188.16;4907063;29;20052;-49
2022/02/18 05:52:38;;;;;;;40.90;5.63;;;;;;;11.90;100.00;100180.72;4918876;29;20089;-47
2022/02/18 05:55:05;;;;;;;41.13;5.72;;;;;;;12.15;100.00;100169.19;4869067;29;20050;-49
2022/02/18 05:57:30;;;;;;;35.85;7.38;;;;;;;12.12;100.00;100180.34;4875506;29;20053;-53
2022/02/18 05:59:55;;;;;;;41.60;6.05;;;;;;;11.99;100.00;100167.84;4871619;29;20105;-51
2022/02/18 06:02:21;;;;;;;48.42;6.60;;;;;;;12.19;100.00;100156.97;4881451;29;20093;-51
2022/02/18 06:04:47;;;;;;;45.40;5.30;;;;;;;12.13;100.00;100141.78;4870153;29;20048;-48
2022/02/18 06:07:15;;;;;;;47.10;5.13;;;;;;;12.08;100.00;100123.69;4876162;29;20053;-48
2022/02/18 06:09:40;;;;;;;32.38;4.78;;;;;;;12.33;100.00;100125.47;4877020;29;20048;-47
2022/02/18 06:12:06;;;;;;;32.60;5.03;;;;;;;12.05;100.00;100116.09;4870157;29;20042;-47
2022/02/18 06:14:32;;;;;;;35.53;5.32;;;;;;;12.10;100.00;100100.16;4881065;29;20066;-48
2022/02/18 06:16:57;;;;;;;32.23;5.10;;;;;;;12.12;100.00;100095.38;4870388;29;20061;-49
2022/02/18 06:19:22;;;;;;;33.90;5.60;;;;;;;12.23;100.00;100083.09;4875654;29;20050;-48
2022/02/18 06:21:49;;;;;;;;;;;;;;;12.06;100.00;100066.81;4878208;29;20041;-49
2022/02/18 06:24:14;;;;;;;29.57;5.13;;;;;;;11.83;100.00;100057.53;4868266;29;19951;-49
2022/02/18 06:26:40;;;;;;;37.00;4.80;;;;;;;12.01;100.00;100045.22;4868926;29;20033;-50
2022/02/18 06:29:05;;;;;;;43.53;5.37;;;;;;;12.03;100.00;100032.41;4877666;29;20045;-52
2022/02/18 06:31:31;;;;;;;47.47;5.10;;;;;;;12.01;100.00;100039.88;4875284;29;20061;-51
2022/02/18 06:33:56;;;;;;;38.28;5.53;;;;;;;11.66;100.00;100025.19;4871049;29;20109;-49
2022/02/18 06:36:22;;;;;;;32.57;4.40;;;;;;;11.63;100.00;99998.81;4880389;29;20073;-52
2022/02/18 06:38:47;;;;;;;38.70;6.65;;;;;;;11.72;100.00;99986.78;4866677;29;20065;-51
2022/02/18 06:41:14;;;;;;;23.53;4.20;;;;;;;11.55;100.00;99972.34;4872753;29;20040;-49
2022/02/18 06:43:39;;;;;;;36.92;5.80;;;;;;;11.76;100.00;99955.00;4876825;29;20116;-49
2022/02/18 06:46:06;;;;;;;28.88;4.55;;;;;;;11.67;100.00;99961.69;4876250;29;20098;-48
2022/02/18 06:48:31;;;;;;;35.17;5.17;;;;;;;11.62;100.00;99943.63;4877152;29;20029;-51
2022/02/18 06:50:56;;;;;;;38.60;4.87;;;;;;;11.53;100.00;99942.31;4875153;29;20067;-50
2022/02/18 06:53:22;;;;;;;31.77;6.83;;;;;;;11.46;100.00;99923.63;4881947;29;20037;-51
2022/02/18 06:55:48;;;;;;;31.17;5.20;;;;;;;11.54;100.00;99923.34;4913104;29;20048;-53
2022/02/18 06:58:13;;;;;;;47.33;5.53;;;;;;;11.61;100.00;99899.13;4914052;29;20287;-49
2022/02/18 07:00:39;;;;;;;21.48;4.63;;;;;;;11.77;100.00;99905.75;4910577;29;20272;-49
2022/02/18 07:03:07;;;;;;;29.45;5.07;;;;;;;11.54;100.00;99891.22;4911784;29;20100;-50
2022/02/18 07:05:33;;;;;;;41.45;5.07;;;;;;;11.57;100.00;99893.44;4914236;29;20047;-49
2022/02/18 07:08:00;;;;;;;30.02;6.18;;;;;;;11.35;100.00;99897.63;4911931;29;20033;-48
2022/02/18 07:10:27;;;;;;;29.95;5.35;;;;;;;11.61;100.00;99905.31;4913751;29;20040;-51
2022/02/18 07:12:52;;;;;;;36.78;4.90;;;;;;;11.69;100.00;99879.28;4913031;29;20050;-51
2022/02/18 07:15:19;;;;;;;32.57;5.77;;;;;;;11.85;100.00;99857.22;4912015;29;20032;-53
2022/02/18 07:17:45;;;;;;;32.47;5.32;;;;;;;12.09;100.00;99868.03;4912680;29;20393;-47
2022/02/18 07:20:12;;;;;;;38.38;5.40;;;;;;;11.97;100.00;99872.50;4911724;29;20040;-52
2022/02/18 07:22:40;;;;;;;37.38;6.55;;;;;;;11.89;100.00;99879.81;4912921;29;20104;-49
2022/02/18 07:25:06;;;;;;;37.45;6.22;;;;;;;11.84;100.00;99868.16;4912604;29;20036;-48
2022/02/18 07:27:33;;;;;;;35.42;6.32;;;;;;;11.70;100.00;99854.94;4914363;29;20028;-50
2022/02/18 07:30:00;;;;;;;37.75;6.80;;;;;;;11.80;100.00;99842.88;4910872;29;20051;-48
2022/02/18 07:32:25;;;;;;;;;;;;;;;11.82;100.00;99820.16;4914642;29;20051;-53
2022/02/18 07:34:51;;;;;;;29.93;5.43;;;;;;;11.78;100.00;99824.34;4904550;29;20410;-52
2022/02/18 07:37:17;;;;;;;41.67;6.95;;;;;;;11.95;100.00;99818.31;4919906;29;20060;-48
2022/02/18 07:39:43;;;;;;;33.72;7.03;;;;;;;11.94;100.00;99808.66;4908575;29;20048;-49
2022/02/18 07:42:09;;;;;;;37.80;6.45;;;;;;;12.08;100.00;99804.75;4916664;29;20052;-50
2022/02/18 07:44:36;;;;;;;31.20;6.68;;;;;;;12.13;100.00;99790.69;4904295;29;20037;-51
2022/02/18 07:47:02;;;;;;;;;;;;;;;11.88;100.00;99784.41;4915730;29;20037;-52
2022/02/18 07:49:28;;;;;;;32.17;6.70;;;;;;;12.05;100.00;99762.34;4911873;29;19919;-51
2022/02/18 07:51:53;;;;;;;28.83;5.20;;;;;;;12.10;100.00;99783.91;4910415;29;20084;-46
2022/02/18 07:54:18;;;;;;;25.70;7.23;;;;;;;12.15;100.00;99759.09;4910556;29;20049;-49
2022/02/18 07:56:44;;;;;;;36.70;7.13;;;;;;;12.12;100.00;99746.97;4909989;29;20064;-49
2022/02/18 07:59:10;;;;;;;23.58;6.53;;;;;;;12.44;100.00;99743.91;4911946;29;20096;-48
2022/02/18 08:01:36;;;;;;;34.05;6.28;;;;;;;12.27;100.00;99745.69;4911783;29;20036;-48
2022/02/18 08:04:01;;;;;;;33.63;7.60;;;;;;;12.41;100.00;99747.06;4909491;29;20052;-47
2022/02/18 08:06:27;;;;;;;29.70;6.63;;;;;;;12.35;100.00;99725.75;4911247;29;20032;-49
2022/02/18 08:08:53;;;;;;;29.83;6.20;;;;;;;12.38;100.00;99723.41;4910495;29;20101;-49
2022/02/18 08:11:19;;;;;;;34.63;7.60;;;;;;;12.21;100.00;99709.91;4908248;29;20044;-49
2022/02/18 08:13:45;;;;;;;20.65;4.90;;;;;;;12.40;100.00;99718.63;4891834;29;20295;-50
2022/02/18 08:16:11;;;;;;;17.35;5.78;;;;;;;12.52;100.00;99723.16;4914904;29;20071;-51
2022/02/18 08:18:41;;;;;;;29.70;6.72;;;;;;;12.42;100.00;99700.44;4902788;29;20048;-51
2022/02/18 08:21:07;;;;;;;31.63;7.57;;;;;;;12.39;100.00;99695.53;4918743;29;20063;-48
2022/02/18 08:23:34;;;;;;;36.70;6.97;;;;;;;12.79;100.00;99693.13;4919126;29;20051;-50
2022/02/18 08:25:59;;;;;;;18.38;5.57;;;;;;;12.59;100.00;99688.97;4906220;29;20045;-50
2022/02/18 08:28:25;;;;;;;25.10;6.63;;;;;;;12.90;100.00;99671.63;4915269;29;20078;-49
2022/02/18 08:30:50;;;;;;;31.20;6.50;;;;;;;13.13;100.00;99688.69;4904445;29;20064;-50
2022/02/18 08:33:16;;;;;;;24.77;8.07;;;;;;;12.59;100.00;99688.97;4911773;29;20048;-50
2022/02/18 08:35:42;;;;;;;27.42;7.75;;;;;;;12.65;100.00;99671.94;4910453;29;20033;-52
2022/02/18 08:38:08;;;;;;;23.90;6.25;;;;;;;12.79;100.00;99672.47;4904823;29;20132;-49
2022/02/18 08:40:34;;;;;;;20.53;6.33;;;;;;;12.90;100.00;99668.94;4916840;29;20036;-49
2022/02/18 08:43:02;;;;;;;25.88;6.55;;;;;;;12.95;100.00;99660.19;4913762;29;20036;-49
2022/02/18 08:45:29;;;;;;;28.95;7.20;;;;;;;12.81;100.00;99648.09;4908766;29;20065;-49
2022/02/18 08:47:56;;;;;;;21.75;6.82;;;;;;;13.13;100.00;99634.16;4918561;29;20092;-49
2022/02/18 08:50:22;;;;;;;24.92;7.80;;;;;;;13.16;100.00;99633.72;4902680;29;20045;-51
2022/02/18 08:52:48;;;;;;;17.88;6.72;;;;;;;13.17;100.00;99624.59;4915002;29;20101;-48
2022/02/18 08:55:15;;;;;;;21.70;6.00;;;;;;;13.13;100.00;99613.53;4906680;29;20076;-50
2022/02/18 08:57:43;;;;;;;20.95;6.35;;;;;;;13.13;100.00;99616.22;4918776;29;20044;-50
2022/02/18 09:00:09;;;;;;;22.43;6.87;;;;;;;13.13;100.00;99615.38;4904584;29;20033;-49
2022/02/18 09:02:36;;;;;;;22.95;6.35;;;;;;;13.19;100.00;99607.19;4901513;29;20353;-51
2022/02/18 09:05:03;;;;;;;26.02;6.68;;;;;;;13.22;100.00;99605.88;4913107;29;20085;-50
2022/02/18 09:07:28;;;;;;;23.08;7.25;;;;;;;13.00;100.00;99617.34;4892264;29;20131;-52
2022/02/18 09:09:56;;;;;;;37.58;7.28;;;;;;;13.14;100.00;99592.84;4906737;29;20051;-49
2022/02/18 09:12:23;;;;;;;24.98;6.38;;;;;;;13.19;100.00;99579.53;4915496;29;20040;-48
2022/02/18 09:14:49;;;;;;;26.73;8.35;;;;;;;13.11;100.00;99578.06;4903452;29;20056;-53
2022/02/18 09:17:22;;;;;;;16.10;5.65;;;;;;;13.09;100.00;99569.44;4894234;29;20041;-50
2022/02/18 09:19:51;;;;;;;21.55;5.90;;;;;;;13.35;100.00;99564.47;4910285;29;20056;-48
2022/02/18 09:22:18;;;;;;;17.55;6.63;;;;;;;13.25;100.00;99562.44;4918118;29;20059;-48
2022/02/18 09:24:44;;;;;;;21.42;5.68;;;;;;;13.17;100.00;99560.19;4902573;29;20033;-49
2022/02/18 09:27:10;;;;;;;19.02;5.00;;;;;;;13.37;100.00;99542.72;4918382;29;20051;-47
2022/02/18 09:29:36;;;;;;;19.47;5.60;;;;;;;13.36;100.00;99544.63;4908813;29;20036;-50
2022/02/18 09:32:04;;;;;;;23.03;5.67;;;;;;;13.57;100.00;99547.63;4912064;29;20150;-50
2022/02/18 09:34:30;;;;;;;16.95;5.60;;;;;;;13.67;100.00;99528.97;4902029;29;20047;-50
2022/02/18 09:36:56;;;;;;;;;;;;;;;13.60;100.00;99534.50;4914134;29;20045;-50
2022/02/18 09:39:22;;;;;;;14.73;4.87;;;;;;;13.56;100.00;99519.94;4907046;29;19930;-49
2022/02/18 09:41:48;;;;;;;19.70;5.27;;;;;;;13.55;100.00;99510.28;4906884;29;20041;-51
2022/02/18 09:44:15;;;;;;;18.57;5.10;;;;;;;13.88;100.00;99508.56;4913885;29;20271;-47
2022/02/18 09:46:41;;;;;;;17.50;5.00;;;;;;;13.77;100.00;99506.78;4902471;29;20048;-50
2022/02/18 09:49:09;;;;;;;11.23;4.75;;;;;;;13.79;100.00;99501.19;4911846;29;20280;-51
2022/02/18 09:51:34;;;;;;;21.33;6.43;;;;;;;13.94;100.00;99476.38;4908272;29;20045;-51
2022/02/18 09:54:00;;;;;;;18.47;4.93;;;;;;;13.99;100.00;99473.72;4905110;29;20343;-53
2022/02/18 09:56:25;;;;;;;15.70;4.10;;;;;;;13.76;100.00;99456.81;4899356;29;20041;-50
2022/02/18 09:58:56;;;;;;;10.30;4.55;;;;;;;14.05;100.00;99454.72;4917405;29;20037;-50
2022/02/18 10:01:23;;;;;;;15.07;4.83;;;;;;;13.85;100.00;99459.88;4917642;29;20108;-51
2022/02/18 10:03:48;;;;;;;11.05;5.40;;;;;;;14.10;100.00;99458.53;4906454;29;20291;-49
2022/02/18 10:06:13;;;;;;;8.97;4.40;;;;;;;14.27;100.00;99447.66;4913965;29;20041;-49
2022/02/18 10:08:49;;;;;;;11.60;4.40;;;;;;;14.34;100.00;99432.16;4886039;29;20104;-54
2022/02/18 10:11:14;;;;;;;11.53;4.67;;;;;;;14.33;100.00;99447.47;4911544;29;20436;-47
2022/02/18 10:13:42;;;;;;;10.05;3.88;;;;;;;14.26;100.00;99435.28;4912295;29;20275;-49
2022/02/18 10:16:18;;;;;;;9.40;4.10;;;;;;;14.32;100.00;99431.59;4891446;29;20065;-48
2022/02/18 10:18:54;;;;;;;13.70;6.45;;;;;;;14.36;100.00;99421.94;4920351;29;20303;-49
2022/02/18 10:21:20;;;;;;;13.10;5.80;;;;;;;14.17;100.00;99403.50;4921624;29;20055;-48
2022/02/18 10:23:46;;;;;;;14.03;6.70;;;;;;;14.53;100.00;99407.56;4921386;29;20303;-49
2022/02/18 10:26:11;;;;;;;21.08;8.38;;;;;;;14.72;100.00;99386.47;4907459;29;20044;-49
2022/02/18 10:28:38;;;;;;;11.60;6.20;;;;;;;14.56;100.00;99401.69;4917910;29;20103;-48
2022/02/18 10:31:06;;;;;;;8.87;5.17;;;;;;;14.90;100.00;99369.09;4907380;29;20101;-49
2022/02/18 10:33:35;;;;;;;10.20;4.23;;;;;;;14.76;100.00;99361.50;4911414;29;20280;-49
2022/02/18 10:36:02;;;;;;;6.67;3.33;;;;;;;14.76;100.00;99385.72;4902151;29;20276;-49
2022/02/18 10:38:36;;;;;;;10.10;4.03;;;;;;;14.71;100.00;99366.81;4917305;29;20291;-50
2022/02/18 10:41:17;;;;;;;6.63;2.60;;;;;;;14.77;100.00;99360.44;4902318;29;20276;-46
2022/02/18 10:43:44;;;;;;;5.63;3.10;;;;;;;14.76;100.00;99326.53;4912393;29;20298;-53
2022/02/18 10:46:10;;;;;;;7.00;2.70;;;;;;;14.79;100.00;99327.06;4907534;29;20279;-49
2022/02/18 10:48:50;;;;;;;7.07;2.70;;;;;;;15.04;100.00;99335.28;4916342;29;20314;-49
2022/02/18 10:51:24;;;;;;;7.27;3.13;;;;;;;15.12;100.00;99335.84;4892476;29;20048;-49
2022/02/18 10:53:51;;;;;;;5.00;2.40;;;;;;;15.09;100.00;99345.22;4909822;29;20292;-51
2022/02/18 10:56:20;;;;;;;;;;;;;;;15.24;100.00;99320.28;4902488;29;20275;-48
2022/02/18 10:58:50;;;;;;;4.80;1.87;;;;;;;15.28;100.00;99315.16;4916589;29;19957;-49
2022/02/18 11:01:19;;;;;;;3.70;2.20;;;;;;;15.43;100.00;99304.44;4900832;29;20280;-50
2022/02/18 11:03:52;;;;;;;4.60;2.47;;;;;;;15.33;100.00;99305.22;4911943;29;20279;-53
2022/02/18 11:06:19;;;;;;;5.73;2.30;;;;;;;15.59;100.00;99294.50;4906028;29;20276;-49
2022/02/18 11:08:56;;;;;;;5.73;2.70;;;;;;;15.56;100.00;99262.69;4917101;29;20358;-49
2022/02/18 11:11:29;;;;;;;9.90;2.97;;;;;;;15.46;100.00;99278.88;4909426;29;20271;-52
2022/02/18 11:13:55;;;;;;;6.23;1.40;;;;;;;15.73;100.00;99283.22;4920779;29;20303;-52